sensor_id;sensor_type;location;lat;lon;timestamp;pressure;altitude;pressure_sealevel;temperature;humidity
40788;BME280;26497;52.494;7.546;2023-07-31T00:00:15;100278.97;;;19.88;79.85
40788;BME280;26497;52.494;7.546;2023-07-31T00:02:43;100283.78;;;20.01;79.69
40788;BME280;26497;52.494;7.546;2023-07-31T00:05:10;100274.03;;;20.00;79.40
40788;BME280;26497;52.494;7.546;2023-07-31T00:07:37;100263.91;;;20.07;79.17
40788;BME280;26497;52.494;7.546;2023-07-31T00:10:05;100263.69;;;19.92;80.16
40788;BME280;26497;52.494;7.546;2023-07-31T00:12:32;100263.47;;;19.97;79.95
40788;BME280;26497;52.494;7.546;2023-07-31T00:14:59;100269.69;;;19.97;79.91
40788;BME280;26497;52.494;7.546;2023-07-31T00:17:26;100259.59;;;19.83;80.91
40788;BME280;26497;52.494;7.546;2023-07-31T00:19:54;100261.81;;;19.73;81.61
40788;BME280;26497;52.494;7.546;2023-07-31T00:22:21;100264.06;;;19.83;81.16
40788;BME280;26497;52.494;7.546;2023-07-31T00:24:48;100254.53;;;19.77;81.83
40788;BME280;26497;52.494;7.546;2023-07-31T00:27:15;100251.50;;;19.85;81.17
40788;BME280;26497;52.494;7.546;2023-07-31T00:29:42;100252.28;;;19.68;82.01
40788;BME280;26497;52.494;7.546;2023-07-31T00:32:09;100244.72;;;19.57;82.93
40788;BME280;26497;52.494;7.546;2023-07-31T00:34:37;100251.53;;;19.43;83.79
40788;BME280;26497;52.494;7.546;2023-07-31T00:37:05;100235.97;;;19.33;84.69
40788;BME280;26497;52.494;7.546;2023-07-31T00:39:34;100242.44;;;19.48;84.22
40788;BME280;26497;52.494;7.546;2023-07-31T00:42:01;100236.69;;;19.36;84.72
40788;BME280;26497;52.494;7.546;2023-07-31T00:44:28;100235.97;;;19.53;83.59
40788;BME280;26497;52.494;7.546;2023-07-31T00:46:56;100236.94;;;19.71;82.33
40788;BME280;26497;52.494;7.546;2023-07-31T00:49:24;100234.22;;;19.73;81.54
40788;BME280;26497;52.494;7.546;2023-07-31T00:51:52;100227.47;;;19.43;82.96
40788;BME280;26497;52.494;7.546;2023-07-31T00:54:21;100241.47;;;19.50;82.78
40788;BME280;26497;52.494;7.546;2023-07-31T00:56:48;100232.78;;;19.45;83.33
40788;BME280;26497;52.494;7.546;2023-07-31T00:59:17;100235.75;;;19.58;82.93
40788;BME280;26497;52.494;7.546;2023-07-31T01:01:45;100236.63;;;19.58;82.94
40788;BME280;26497;52.494;7.546;2023-07-31T01:04:12;100236.81;;;19.54;82.92
40788;BME280;26497;52.494;7.546;2023-07-31T01:06:47;100234.75;;;19.60;82.99
40788;BME280;26497;52.494;7.546;2023-07-31T01:09:25;100229.72;;;19.73;82.34
40788;BME280;26497;52.494;7.546;2023-07-31T01:12:00;100219.28;;;19.67;81.92
40788;BME280;26497;52.494;7.546;2023-07-31T01:14:28;100218.56;;;19.64;82.51
40788;BME280;26497;52.494;7.546;2023-07-31T01:16:55;100219.56;;;19.61;82.30
40788;BME280;26497;52.494;7.546;2023-07-31T01:19:25;100209.34;;;19.71;82.33
40788;BME280;26497;52.494;7.546;2023-07-31T01:22:16;100205.72;;;19.72;82.02
40788;BME280;26497;52.494;7.546;2023-07-31T01:24:59;100213.81;;;19.70;82.02
40788;BME280;26497;52.494;7.546;2023-07-31T01:27:34;100204.13;;;19.68;82.05
40788;BME280;26497;52.494;7.546;2023-07-31T01:30:08;100198.19;;;19.40;83.78
40788;BME280;26497;52.494;7.546;2023-07-31T01:32:41;100189.44;;;19.57;82.88
40788;BME280;26497;52.494;7.546;2023-07-31T01:35:10;100190.69;;;19.49;83.62
40788;BME280;26497;52.494;7.546;2023-07-31T01:37:37;100201.13;;;19.55;83.39
40788;BME280;26497;52.494;7.546;2023-07-31T01:40:06;100184.31;;;19.72;82.69
40788;BME280;26497;52.494;7.546;2023-07-31T01:42:34;100190.66;;;19.69;82.19
40788;BME280;26497;52.494;7.546;2023-07-31T01:45:01;100193.63;;;19.63;82.64
40788;BME280;26497;52.494;7.546;2023-07-31T01:47:28;100186.63;;;19.60;82.91
40788;BME280;26497;52.494;7.546;2023-07-31T01:49:55;100179.22;;;19.47;83.60
40788;BME280;26497;52.494;7.546;2023-07-31T01:52:22;100175.97;;;19.40;84.36
40788;BME280;26497;52.494;7.546;2023-07-31T01:54:49;100177.41;;;19.47;84.08
40788;BME280;26497;52.494;7.546;2023-07-31T01:57:16;100164.19;;;19.63;83.35
40788;BME280;26497;52.494;7.546;2023-07-31T01:59:44;100176.84;;;19.59;83.15
40788;BME280;26497;52.494;7.546;2023-07-31T02:02:11;100172.13;;;19.45;84.00
40788;BME280;26497;52.494;7.546;2023-07-31T02:04:38;100170.81;;;19.35;85.13
40788;BME280;26497;52.494;7.546;2023-07-31T02:07:06;100171.28;;;19.45;84.63
40788;BME280;26497;52.494;7.546;2023-07-31T02:09:32;100163.97;;;19.49;84.41
40788;BME280;26497;52.494;7.546;2023-07-31T02:11:59;100171.53;;;19.39;84.84
40788;BME280;26497;52.494;7.546;2023-07-31T02:14:26;100161.84;;;19.36;85.19
40788;BME280;26497;52.494;7.546;2023-07-31T02:16:55;100165.94;;;19.24;86.14
40788;BME280;26497;52.494;7.546;2023-07-31T02:19:22;100171.59;;;19.37;85.25
40788;BME280;26497;52.494;7.546;2023-07-31T02:21:49;100162.25;;;19.27;86.22
40788;BME280;26497;52.494;7.546;2023-07-31T02:24:16;100157.84;;;19.26;85.92
40788;BME280;26497;52.494;7.546;2023-07-31T02:26:43;100152.81;;;19.20;87.04
40788;BME280;26497;52.494;7.546;2023-07-31T02:29:09;100149.97;;;19.23;86.48
40788;BME280;26497;52.494;7.546;2023-07-31T02:31:36;100144.78;;;19.20;87.11
40788;BME280;26497;52.494;7.546;2023-07-31T02:34:04;100148.06;;;19.06;88.17
40788;BME280;26497;52.494;7.546;2023-07-31T02:36:31;100143.25;;;19.14;88.01
40788;BME280;26497;52.494;7.546;2023-07-31T02:38:58;100135.44;;;19.09;88.46
40788;BME280;26497;52.494;7.546;2023-07-31T02:41:25;100137.53;;;19.22;88.13
40788;BME280;26497;52.494;7.546;2023-07-31T02:43:52;100128.97;;;19.34;88.04
40788;BME280;26497;52.494;7.546;2023-07-31T02:46:20;100126.00;;;19.21;88.08
40788;BME280;26497;52.494;7.546;2023-07-31T02:48:50;100124.56;;;19.33;88.16
40788;BME280;26497;52.494;7.546;2023-07-31T02:51:18;100123.16;;;19.45;87.53
40788;BME280;26497;52.494;7.546;2023-07-31T02:53:47;100119.59;;;19.44;87.52
40788;BME280;26497;52.494;7.546;2023-07-31T02:56:14;100120.53;;;19.43;87.65
40788;BME280;26497;52.494;7.546;2023-07-31T02:58:40;100124.53;;;19.14;89.56
40788;BME280;26497;52.494;7.546;2023-07-31T03:01:07;100118.78;;;19.23;89.70
40788;BME280;26497;52.494;7.546;2023-07-31T03:03:34;100114.63;;;19.16;90.14
40788;BME280;26497;52.494;7.546;2023-07-31T03:06:01;100115.72;;;19.31;89.21
40788;BME280;26497;52.494;7.546;2023-07-31T03:08:30;100119.00;;;19.19;90.10
40788;BME280;26497;52.494;7.546;2023-07-31T03:10:57;100108.13;;;19.22;90.47
40788;BME280;26497;52.494;7.546;2023-07-31T03:13:24;100103.31;;;19.30;90.06
40788;BME280;26497;52.494;7.546;2023-07-31T03:15:51;100106.13;;;19.27;90.26
40788;BME280;26497;52.494;7.546;2023-07-31T03:18:18;100099.78;;;19.29;90.30
40788;BME280;26497;52.494;7.546;2023-07-31T03:20:45;100103.53;;;19.44;89.75
40788;BME280;26497;52.494;7.546;2023-07-31T03:23:12;100103.78;;;19.59;88.99
40788;BME280;26497;52.494;7.546;2023-07-31T03:25:55;100109.75;;;19.64;88.72
40788;BME280;26497;52.494;7.546;2023-07-31T03:28:23;100098.63;;;19.73;88.32
40788;BME280;26497;52.494;7.546;2023-07-31T03:30:50;100105.00;;;19.71;88.54
40788;BME280;26497;52.494;7.546;2023-07-31T03:33:18;100099.22;;;19.61;88.79
40788;BME280;26497;52.494;7.546;2023-07-31T03:35:45;100097.13;;;19.68;89.15
40788;BME280;26497;52.494;7.546;2023-07-31T03:38:12;100098.50;;;19.96;87.59
40788;BME280;26497;52.494;7.546;2023-07-31T03:40:40;100101.25;;;19.94;87.58
40788;BME280;26497;52.494;7.546;2023-07-31T03:43:07;100095.38;;;20.05;87.10
40788;BME280;26497;52.494;7.546;2023-07-31T03:45:34;100101.47;;;19.89;87.41
40788;BME280;26497;52.494;7.546;2023-07-31T03:48:01;100096.31;;;19.85;88.19
40788;BME280;26497;52.494;7.546;2023-07-31T03:50:28;100104.06;;;19.91;87.93
40788;BME280;26497;52.494;7.546;2023-07-31T03:52:55;100096.59;;;19.98;87.82
40788;BME280;26497;52.494;7.546;2023-07-31T03:55:22;100097.84;;;19.91;87.75
40788;BME280;26497;52.494;7.546;2023-07-31T03:57:50;100088.28;;;19.85;88.57
40788;BME280;26497;52.494;7.546;2023-07-31T04:00:18;100086.69;;;19.81;88.98
40788;BME280;26497;52.494;7.546;2023-07-31T04:02:45;100086.28;;;19.90;89.18
40788;BME280;26497;52.494;7.546;2023-07-31T04:05:12;100082.78;;;19.88;89.05
40788;BME280;26497;52.494;7.546;2023-07-31T04:07:38;100080.16;;;19.69;91.00
40788;BME280;26497;52.494;7.546;2023-07-31T04:10:06;100091.44;;;20.12;89.02
40788;BME280;26497;52.494;7.546;2023-07-31T04:12:33;100086.97;;;20.13;88.75
40788;BME280;26497;52.494;7.546;2023-07-31T04:15:02;100102.94;;;20.14;88.80
40788;BME280;26497;52.494;7.546;2023-07-31T04:17:29;100084.94;;;20.18;88.65
40788;BME280;26497;52.494;7.546;2023-07-31T04:19:56;100090.59;;;20.12;88.69
40788;BME280;26497;52.494;7.546;2023-07-31T04:22:23;100082.06;;;20.03;90.12
40788;BME280;26497;52.494;7.546;2023-07-31T04:24:50;100076.31;;;20.11;89.83
40788;BME280;26497;52.494;7.546;2023-07-31T04:27:17;100080.22;;;20.23;89.55
40788;BME280;26497;52.494;7.546;2023-07-31T04:29:44;100082.59;;;20.29;88.68
40788;BME280;26497;52.494;7.546;2023-07-31T04:32:14;100092.34;;;20.30;88.56
40788;BME280;26497;52.494;7.546;2023-07-31T04:34:42;100095.69;;;20.16;90.33
40788;BME280;26497;52.494;7.546;2023-07-31T04:37:09;100090.78;;;20.26;89.64
40788;BME280;26497;52.494;7.546;2023-07-31T04:39:36;100092.53;;;20.45;88.82
40788;BME280;26497;52.494;7.546;2023-07-31T04:42:03;100092.69;;;20.42;88.50
40788;BME280;26497;52.494;7.546;2023-07-31T04:44:30;100087.75;;;20.15;90.08
40788;BME280;26497;52.494;7.546;2023-07-31T04:46:57;100080.25;;;20.41;89.52
40788;BME280;26497;52.494;7.546;2023-07-31T04:49:25;100086.38;;;20.43;89.20
40788;BME280;26497;52.494;7.546;2023-07-31T04:51:52;100086.66;;;20.54;88.30
40788;BME280;26497;52.494;7.546;2023-07-31T04:54:19;100090.06;;;20.40;88.82
40788;BME280;26497;52.494;7.546;2023-07-31T04:56:46;100079.44;;;20.39;89.44
40788;BME280;26497;52.494;7.546;2023-07-31T04:59:14;100085.81;;;20.36;89.48
40788;BME280;26497;52.494;7.546;2023-07-31T05:01:41;100073.03;;;20.24;90.65
40788;BME280;26497;52.494;7.546;2023-07-31T05:04:08;100074.78;;;20.25;90.97
40788;BME280;26497;52.494;7.546;2023-07-31T05:06:36;100075.41;;;20.30;90.94
40788;BME280;26497;52.494;7.546;2023-07-31T05:09:03;100071.09;;;20.27;91.33
40788;BME280;26497;52.494;7.546;2023-07-31T05:11:30;100063.44;;;20.37;90.61
40788;BME280;26497;52.494;7.546;2023-07-31T05:13:57;100074.47;;;20.31;91.23
40788;BME280;26497;52.494;7.546;2023-07-31T05:16:24;100067.78;;;20.22;91.86
40788;BME280;26497;52.494;7.546;2023-07-31T05:18:51;100063.19;;;20.07;92.44
40788;BME280;26497;52.494;7.546;2023-07-31T05:21:18;100070.53;;;20.21;92.52
40788;BME280;26497;52.494;7.546;2023-07-31T05:23:46;100061.09;;;20.31;91.84
40788;BME280;26497;52.494;7.546;2023-07-31T05:26:13;100063.06;;;20.45;91.18
40788;BME280;26497;52.494;7.546;2023-07-31T05:28:40;100061.41;;;20.42;91.48
40788;BME280;26497;52.494;7.546;2023-07-31T05:31:07;100057.69;;;20.10;93.15
40788;BME280;26497;52.494;7.546;2023-07-31T05:33:34;100053.78;;;20.35;92.15
40788;BME280;26497;52.494;7.546;2023-07-31T05:36:01;100048.47;;;20.51;91.08
40788;BME280;26497;52.494;7.546;2023-07-31T05:38:28;100048.81;;;20.44;90.91
40788;BME280;26497;52.494;7.546;2023-07-31T05:40:57;100057.41;;;20.33;91.39
40788;BME280;26497;52.494;7.546;2023-07-31T05:43:24;100050.91;;;20.55;90.41
40788;BME280;26497;52.494;7.546;2023-07-31T05:45:51;100050.69;;;20.42;90.62
40788;BME280;26497;52.494;7.546;2023-07-31T05:48:18;100052.03;;;20.33;91.41
40788;BME280;26497;52.494;7.546;2023-07-31T05:50:45;100046.22;;;20.25;91.47
40788;BME280;26497;52.494;7.546;2023-07-31T05:53:12;100051.88;;;20.37;92.27
40788;BME280;26497;52.494;7.546;2023-07-31T05:55:39;100055.19;;;20.42;91.84
40788;BME280;26497;52.494;7.546;2023-07-31T05:58:07;100047.63;;;20.15;92.29
40788;BME280;26497;52.494;7.546;2023-07-31T06:00:34;100048.72;;;20.28;91.84
40788;BME280;26497;52.494;7.546;2023-07-31T06:03:02;100042.66;;;20.25;91.54
40788;BME280;26497;52.494;7.546;2023-07-31T06:05:30;100046.38;;;20.22;91.28
40788;BME280;26497;52.494;7.546;2023-07-31T06:07:57;100055.16;;;20.07;92.18
40788;BME280;26497;52.494;7.546;2023-07-31T06:10:24;100054.25;;;20.25;91.71
40788;BME280;26497;52.494;7.546;2023-07-31T06:12:51;100062.34;;;20.24;91.20
40788;BME280;26497;52.494;7.546;2023-07-31T06:15:20;100050.31;;;20.32;90.91
40788;BME280;26497;52.494;7.546;2023-07-31T06:17:47;100054.88;;;20.48;89.56
40788;BME280;26497;52.494;7.546;2023-07-31T06:20:14;100052.66;;;20.56;88.89
40788;BME280;26497;52.494;7.546;2023-07-31T06:22:41;100048.66;;;20.47;89.79
40788;BME280;26497;52.494;7.546;2023-07-31T06:25:08;100055.31;;;20.74;88.51
40788;BME280;26497;52.494;7.546;2023-07-31T06:27:35;100057.41;;;20.33;89.53
40788;BME280;26497;52.494;7.546;2023-07-31T06:30:03;100057.63;;;20.29;90.02
40788;BME280;26497;52.494;7.546;2023-07-31T06:32:32;100061.09;;;20.48;89.81
40788;BME280;26497;52.494;7.546;2023-07-31T06:34:59;100046.75;;;20.50;89.13
40788;BME280;26497;52.494;7.546;2023-07-31T06:37:26;100056.53;;;20.51;89.24
40788;BME280;26497;52.494;7.546;2023-07-31T06:39:52;100050.44;;;20.65;88.66
40788;BME280;26497;52.494;7.546;2023-07-31T06:42:19;100050.03;;;20.72;87.47
40788;BME280;26497;52.494;7.546;2023-07-31T06:44:46;100038.28;;;20.75;87.92
40788;BME280;26497;52.494;7.546;2023-07-31T06:47:13;100037.75;;;20.86;87.30
40788;BME280;26497;52.494;7.546;2023-07-31T06:49:42;100035.72;;;21.07;86.59
40788;BME280;26497;52.494;7.546;2023-07-31T06:52:09;100044.59;;;20.91;86.44
40788;BME280;26497;52.494;7.546;2023-07-31T06:54:36;100041.41;;;21.01;84.99
40788;BME280;26497;52.494;7.546;2023-07-31T06:57:04;100043.81;;;20.89;84.85
40788;BME280;26497;52.494;7.546;2023-07-31T06:59:31;100040.44;;;20.86;84.63
40788;BME280;26497;52.494;7.546;2023-07-31T07:02:16;100048.81;;;21.13;83.82
40788;BME280;26497;52.494;7.546;2023-07-31T07:04:44;100043.94;;;21.04;83.38
40788;BME280;26497;52.494;7.546;2023-07-31T07:07:12;100038.50;;;21.05;83.47
40788;BME280;26497;52.494;7.546;2023-07-31T07:09:39;100041.72;;;20.79;84.05
40788;BME280;26497;52.494;7.546;2023-07-31T07:12:08;100034.19;;;20.68;85.14
40788;BME280;26497;52.494;7.546;2023-07-31T07:14:35;100034.41;;;20.47;85.81
40788;BME280;26497;52.494;7.546;2023-07-31T07:17:02;100035.09;;;20.51;86.44
40788;BME280;26497;52.494;7.546;2023-07-31T07:19:29;100040.59;;;20.65;86.04
40788;BME280;26497;52.494;7.546;2023-07-31T07:21:57;100036.09;;;20.66;85.93
40788;BME280;26497;52.494;7.546;2023-07-31T07:24:27;100023.56;;;20.66;86.83
40788;BME280;26497;52.494;7.546;2023-07-31T07:26:54;100031.03;;;20.95;85.73
40788;BME280;26497;52.494;7.546;2023-07-31T07:29:21;100013.22;;;20.94;86.11
40788;BME280;26497;52.494;7.546;2023-07-31T07:31:47;100022.09;;;21.12;85.81
40788;BME280;26497;52.494;7.546;2023-07-31T07:34:14;100013.78;;;21.16;84.92
40788;BME280;26497;52.494;7.546;2023-07-31T07:36:41;100010.94;;;21.19;84.76
40788;BME280;26497;52.494;7.546;2023-07-31T07:39:11;100009.88;;;21.06;84.88
40788;BME280;26497;52.494;7.546;2023-07-31T07:41:38;100005.00;;;20.97;85.11
40788;BME280;26497;52.494;7.546;2023-07-31T07:44:05;100003.31;;;21.12;85.86
40788;BME280;26497;52.494;7.546;2023-07-31T07:46:31;99998.38;;;21.04;85.90
40788;BME280;26497;52.494;7.546;2023-07-31T07:48:58;100000.47;;;21.15;85.46
40788;BME280;26497;52.494;7.546;2023-07-31T07:51:25;99993.19;;;21.01;85.89
40788;BME280;26497;52.494;7.546;2023-07-31T07:53:52;99980.66;;;21.01;86.74
40788;BME280;26497;52.494;7.546;2023-07-31T07:56:21;99972.56;;;21.19;86.21
40788;BME280;26497;52.494;7.546;2023-07-31T07:58:49;99976.97;;;21.20;85.94
40788;BME280;26497;52.494;7.546;2023-07-31T08:01:16;99973.91;;;21.26;85.52
40788;BME280;26497;52.494;7.546;2023-07-31T08:03:43;99961.38;;;21.11;85.89
40788;BME280;26497;52.494;7.546;2023-07-31T08:06:10;99959.56;;;20.95;87.13
40788;BME280;26497;52.494;7.546;2023-07-31T08:08:37;99960.47;;;20.78;88.33
40788;BME280;26497;52.494;7.546;2023-07-31T08:11:05;99946.31;;;20.92;88.56
40788;BME280;26497;52.494;7.546;2023-07-31T08:13:33;99959.44;;;20.97;88.58
40788;BME280;26497;52.494;7.546;2023-07-31T08:16:02;99961.53;;;20.91;88.89
40788;BME280;26497;52.494;7.546;2023-07-31T08:18:30;99960.31;;;20.63;89.16
40788;BME280;26497;52.494;7.546;2023-07-31T08:20:57;99947.34;;;20.89;89.41
40788;BME280;26497;52.494;7.546;2023-07-31T08:23:24;99945.72;;;21.03;89.29
40788;BME280;26497;52.494;7.546;2023-07-31T08:25:51;99946.66;;;21.02;89.08
40788;BME280;26497;52.494;7.546;2023-07-31T08:28:18;99944.94;;;21.01;88.75
40788;BME280;26497;52.494;7.546;2023-07-31T08:30:46;99950.66;;;21.11;88.57
40788;BME280;26497;52.494;7.546;2023-07-31T08:33:13;99945.38;;;20.93;89.38
40788;BME280;26497;52.494;7.546;2023-07-31T08:35:40;99946.16;;;20.95;90.27
40788;BME280;26497;52.494;7.546;2023-07-31T08:38:07;99937.25;;;21.11;89.63
40788;BME280;26497;52.494;7.546;2023-07-31T08:40:36;99932.91;;;21.24;90.09
40788;BME280;26497;52.494;7.546;2023-07-31T08:43:04;99931.97;;;21.41;88.67
40788;BME280;26497;52.494;7.546;2023-07-31T08:45:31;99940.44;;;21.33;88.93
40788;BME280;26497;52.494;7.546;2023-07-31T08:48:00;99934.81;;;21.38;88.00
40788;BME280;26497;52.494;7.546;2023-07-31T08:50:27;99936.81;;;21.18;89.18
40788;BME280;26497;52.494;7.546;2023-07-31T08:52:54;99930.66;;;21.32;88.94
40788;BME280;26497;52.494;7.546;2023-07-31T08:55:21;99932.75;;;21.43;88.99
40788;BME280;26497;52.494;7.546;2023-07-31T08:57:52;99931.69;;;21.46;88.72
40788;BME280;26497;52.494;7.546;2023-07-31T09:00:20;99928.25;;;21.28;89.26
40788;BME280;26497;52.494;7.546;2023-07-31T09:02:56;99935.00;;;21.35;89.72
40788;BME280;26497;52.494;7.546;2023-07-31T09:05:26;99930.31;;;21.55;88.92
40788;BME280;26497;52.494;7.546;2023-07-31T09:07:56;99927.28;;;21.61;88.42
40788;BME280;26497;52.494;7.546;2023-07-31T09:10:24;99926.25;;;21.63;88.59
40788;BME280;26497;52.494;7.546;2023-07-31T09:12:52;99921.88;;;21.77;88.28
40788;BME280;26497;52.494;7.546;2023-07-31T09:15:19;99923.09;;;21.55;88.59
40788;BME280;26497;52.494;7.546;2023-07-31T09:17:46;99920.63;;;21.68;89.26
40788;BME280;26497;52.494;7.546;2023-07-31T09:20:16;99923.34;;;21.83;89.09
40788;BME280;26497;52.494;7.546;2023-07-31T09:22:45;99916.81;;;21.87;88.71
40788;BME280;26497;52.494;7.546;2023-07-31T09:25:16;99912.44;;;21.86;89.01
40788;BME280;26497;52.494;7.546;2023-07-31T09:27:48;99919.63;;;21.85;89.34
40788;BME280;26497;52.494;7.546;2023-07-31T09:30:16;99901.47;;;21.74;88.74
40788;BME280;26497;52.494;7.546;2023-07-31T09:32:44;99908.94;;;21.69;90.32
40788;BME280;26497;52.494;7.546;2023-07-31T09:35:20;99901.53;;;22.03;89.63
40788;BME280;26497;52.494;7.546;2023-07-31T09:37:55;99910.81;;;21.98;89.42
40788;BME280;26497;52.494;7.546;2023-07-31T09:40:27;99895.78;;;22.09;89.18
40788;BME280;26497;52.494;7.546;2023-07-31T09:42:57;99899.75;;;22.18;88.50
40788;BME280;26497;52.494;7.546;2023-07-31T09:45:24;99895.34;;;22.32;87.70
40788;BME280;26497;52.494;7.546;2023-07-31T09:47:51;99898.41;;;22.11;87.94
40788;BME280;26497;52.494;7.546;2023-07-31T09:50:21;99886.59;;;22.14;87.74
40788;BME280;26497;52.494;7.546;2023-07-31T09:52:49;99900.69;;;22.03;87.81
40788;BME280;26497;52.494;7.546;2023-07-31T09:55:18;99890.28;;;21.82;89.01
40788;BME280;26497;52.494;7.546;2023-07-31T09:57:47;99887.53;;;21.98;88.85
40788;BME280;26497;52.494;7.546;2023-07-31T10:00:16;99881.13;;;22.15;88.49
40788;BME280;26497;52.494;7.546;2023-07-31T10:02:46;99881.50;;;21.94;90.19
40788;BME280;26497;52.494;7.546;2023-07-31T10:05:14;99880.75;;;22.21;90.21
40788;BME280;26497;52.494;7.546;2023-07-31T10:07:45;99877.00;;;22.24;89.33
40788;BME280;26497;52.494;7.546;2023-07-31T10:10:20;99875.88;;;22.28;89.32
40788;BME280;26497;52.494;7.546;2023-07-31T10:12:49;99876.56;;;22.32;89.82
40788;BME280;26497;52.494;7.546;2023-07-31T10:15:16;99884.69;;;22.30;88.93
40788;BME280;26497;52.494;7.546;2023-07-31T10:17:44;99873.38;;;22.39;88.82
40788;BME280;26497;52.494;7.546;2023-07-31T10:20:13;99877.97;;;22.37;87.71
40788;BME280;26497;52.494;7.546;2023-07-31T10:22:42;99884.13;;;22.39;87.83
40788;BME280;26497;52.494;7.546;2023-07-31T10:25:11;99874.41;;;22.08;89.87
40788;BME280;26497;52.494;7.546;2023-07-31T10:27:40;99874.88;;;22.00;90.27
40788;BME280;26497;52.494;7.546;2023-07-31T10:30:11;99861.66;;;22.41;89.18
40788;BME280;26497;52.494;7.546;2023-07-31T10:32:41;99864.09;;;22.31;88.65
40788;BME280;26497;52.494;7.546;2023-07-31T10:35:10;99858.78;;;22.44;88.21
40788;BME280;26497;52.494;7.546;2023-07-31T10:37:39;99852.19;;;22.64;87.33
40788;BME280;26497;52.494;7.546;2023-07-31T10:40:11;99865.50;;;22.80;88.03
40788;BME280;26497;52.494;7.546;2023-07-31T10:42:46;99854.34;;;23.01;86.42
40788;BME280;26497;52.494;7.546;2023-07-31T10:45:23;99860.03;;;22.81;85.32
40788;BME280;26497;52.494;7.546;2023-07-31T10:47:58;99861.34;;;22.89;85.51
40788;BME280;26497;52.494;7.546;2023-07-31T10:50:28;99860.84;;;23.11;84.59
40788;BME280;26497;52.494;7.546;2023-07-31T10:52:57;99855.25;;;23.14;83.92
40788;BME280;26497;52.494;7.546;2023-07-31T10:55:28;99856.66;;;23.20;83.95
40788;BME280;26497;52.494;7.546;2023-07-31T10:57:58;99852.56;;;23.14;84.88
40788;BME280;26497;52.494;7.546;2023-07-31T11:00:31;99855.06;;;23.17;84.30
40788;BME280;26497;52.494;7.546;2023-07-31T11:03:03;99859.09;;;23.10;85.16
40788;BME280;26497;52.494;7.546;2023-07-31T11:05:50;99850.78;;;22.86;86.36
40788;BME280;26497;52.494;7.546;2023-07-31T11:08:21;99839.38;;;22.96;85.85
40788;BME280;26497;52.494;7.546;2023-07-31T11:10:50;99843.63;;;22.86;85.60
40788;BME280;26497;52.494;7.546;2023-07-31T11:13:19;99839.75;;;22.90;84.84
40788;BME280;26497;52.494;7.546;2023-07-31T11:15:46;99843.78;;;22.97;85.51
40788;BME280;26497;52.494;7.546;2023-07-31T11:18:13;99831.41;;;22.80;85.32
40788;BME280;26497;52.494;7.546;2023-07-31T11:20:46;99837.69;;;22.66;85.68
40788;BME280;26497;52.494;7.546;2023-07-31T11:23:17;99835.97;;;22.65;85.01
40788;BME280;26497;52.494;7.546;2023-07-31T11:25:44;99847.47;;;22.82;85.37
40788;BME280;26497;52.494;7.546;2023-07-31T11:28:13;99833.31;;;23.20;83.23
40788;BME280;26497;52.494;7.546;2023-07-31T11:30:42;99846.16;;;23.30;81.84
40788;BME280;26497;52.494;7.546;2023-07-31T11:33:11;99840.63;;;23.18;83.13
40788;BME280;26497;52.494;7.546;2023-07-31T11:35:44;99834.66;;;23.68;81.13
40788;BME280;26497;52.494;7.546;2023-07-31T11:38:12;99844.16;;;23.86;79.34
40788;BME280;26497;52.494;7.546;2023-07-31T11:40:47;99839.31;;;23.79;78.80
40788;BME280;26497;52.494;7.546;2023-07-31T11:43:14;99829.09;;;23.84;78.58
40788;BME280;26497;52.494;7.546;2023-07-31T11:45:46;99828.97;;;23.73;78.46
40788;BME280;26497;52.494;7.546;2023-07-31T11:48:20;99832.81;;;23.94;78.20
40788;BME280;26497;52.494;7.546;2023-07-31T11:50:49;99829.44;;;24.68;75.16
40788;BME280;26497;52.494;7.546;2023-07-31T11:53:21;99827.31;;;24.61;73.38
40788;BME280;26497;52.494;7.546;2023-07-31T11:55:49;99825.41;;;24.87;72.44
40788;BME280;26497;52.494;7.546;2023-07-31T11:58:17;99821.53;;;24.91;70.90
40788;BME280;26497;52.494;7.546;2023-07-31T12:00:47;99813.16;;;25.07;71.89
40788;BME280;26497;52.494;7.546;2023-07-31T12:03:15;99822.50;;;24.90;71.43
40788;BME280;26497;52.494;7.546;2023-07-31T12:05:42;99818.38;;;24.73;72.12
40788;BME280;26497;52.494;7.546;2023-07-31T12:08:10;99817.56;;;24.84;70.53
40788;BME280;26497;52.494;7.546;2023-07-31T12:10:38;99805.94;;;24.33;73.03
40788;BME280;26497;52.494;7.546;2023-07-31T12:13:16;99812.19;;;24.08;72.51
40788;BME280;26497;52.494;7.546;2023-07-31T12:15:48;99821.88;;;24.23;72.91
40788;BME280;26497;52.494;7.546;2023-07-31T12:18:19;99826.19;;;24.13;73.44
40788;BME280;26497;52.494;7.546;2023-07-31T12:20:49;99829.09;;;24.10;73.25
40788;BME280;26497;52.494;7.546;2023-07-31T12:23:22;99824.38;;;24.13;72.98
40788;BME280;26497;52.494;7.546;2023-07-31T12:26:00;99834.00;;;24.55;72.27
40788;BME280;26497;52.494;7.546;2023-07-31T12:28:27;99816.94;;;24.30;72.45
40788;BME280;26497;52.494;7.546;2023-07-31T12:30:59;99821.31;;;24.44;71.48
40788;BME280;26497;52.494;7.546;2023-07-31T12:33:31;99826.84;;;24.17;72.67
40788;BME280;26497;52.494;7.546;2023-07-31T12:36:01;99810.44;;;24.46;71.24
40788;BME280;26497;52.494;7.546;2023-07-31T12:38:28;99814.84;;;24.47;71.71
40788;BME280;26497;52.494;7.546;2023-07-31T12:40:55;99812.16;;;24.47;70.98
40788;BME280;26497;52.494;7.546;2023-07-31T12:43:22;99813.25;;;24.31;70.75
40788;BME280;26497;52.494;7.546;2023-07-31T12:45:49;99816.34;;;24.38;71.49
40788;BME280;26497;52.494;7.546;2023-07-31T12:48:17;99820.03;;;24.11;72.92
40788;BME280;26497;52.494;7.546;2023-07-31T12:50:45;99829.22;;;24.08;73.11
40788;BME280;26497;52.494;7.546;2023-07-31T12:53:12;99817.53;;;24.47;71.84
40788;BME280;26497;52.494;7.546;2023-07-31T12:55:39;99826.00;;;24.66;70.78
40788;BME280;26497;52.494;7.546;2023-07-31T12:58:06;99826.16;;;24.39;71.54
40788;BME280;26497;52.494;7.546;2023-07-31T13:00:33;99821.34;;;24.68;69.43